Terminal Aerodrome Forecast
Issued by NWS

Home | Current Version | Previous Version | Text Only | Print | Product List | Glossary On
Versions: 1 2 3 4 5 6 7 8 9 10 11 12 13
000
FTUS45 KRIW 160500
TAFJAC
TAF
KJAC 160523Z 1606/1706 27010G20KT P6SM VCSH BKN050
     FM161000 35007KT P6SM SCT050 BKN150
     FM162000 19007KT P6SM VCSH BKN060
     FM170400 VRB05KT P6SM SCT050 BKN150
      AMD LTD TO CLD VIS AND WIND=

USA.gov is the U.S. government's official web portal to all federal, state and local government web resources and services.